Time;durP1;ratioP1;P1;durP2;ratioP2;P2;SDS_P1;SDS_P2;PMS_P1;PMS_P2;Temp;Humidity;BMP_temperature;BMP_pressure;BME280_temperature;BME280_humidity;BME280_pressure;Samples;Min_cycle;Max_cycle;Signal;HPM_P1;HPM_P2
2021/12/12 00:01:36;;;;;;;8.63;5.10;;;;;;;;;;5051940;28;20552;-78
2021/12/12 00:04:11;;;;;;;9.03;4.83;;;;;;;;;;5045843;28;20240;-78
2021/12/12 00:06:40;;;;;;;11.63;5.17;;;;;;;;;;5051619;28;20225;-79
2021/12/12 00:09:10;;;;;;;5.80;4.80;;;;;;;;;;5051290;28;20230;-79
2021/12/12 00:11:38;;;;;;;5.10;4.60;;;;;;;;;;5050941;28;20229;-77
2021/12/12 00:14:06;;;;;;;14.27;5.10;;;;;;;;;;5050842;28;20229;-77
2021/12/12 00:16:33;;;;;;;7.70;4.70;;;;;;;;;;5049259;28;20237;-77
2021/12/12 00:19:00;;;;;;;8.50;5.13;;;;;;;;;;5050668;28;20248;-77
2021/12/12 00:21:30;;;;;;;9.87;4.60;;;;;;;;;;5049957;28;20710;-77
2021/12/12 00:23:57;;;;;;;9.70;4.43;;;;;;;;;;5048342;28;20205;-80
2021/12/12 00:26:25;;;;;;;8.67;5.20;;;;;;;;;;5054151;28;20206;-79
2021/12/12 00:28:53;;;;;;;8.83;5.20;;;;;;;;;;5052669;28;20205;-80
2021/12/12 00:31:21;;;;;;;7.17;4.27;;;;;;;;;;5052704;28;20239;-79
2021/12/12 00:33:49;;;;;;;9.70;5.40;;;;;;;;;;5052628;28;20203;-79
2021/12/12 00:36:17;;;;;;;9.53;4.57;;;;;;;;;;5053026;28;20251;-79
2021/12/12 00:38:44;;;;;;;10.50;5.23;;;;;;;;;;5052516;28;20198;-79
2021/12/12 00:41:12;;;;;;;8.60;5.20;;;;;;;;;;5051006;28;20267;-80
2021/12/12 00:43:42;;;;;;;15.40;5.20;;;;;;;;;;5052988;28;20206;-79
2021/12/12 00:46:10;;;;;;;7.20;5.00;;;;;;;;;;5051822;28;20206;-79
2021/12/12 00:48:38;;;;;;;8.47;4.83;;;;;;;;;;5053652;28;20202;-79
2021/12/12 00:51:06;;;;;;;9.17;5.23;;;;;;;;;;5054262;28;20716;-79
2021/12/12 00:53:34;;;;;;;11.33;5.10;;;;;;;;;;5053065;28;20194;-80
2021/12/12 00:56:01;;;;;;;4.57;4.10;;;;;;;;;;5050246;28;20237;-77
2021/12/12 00:58:28;;;;;;;8.77;4.90;;;;;;;;;;5050585;28;20202;-77
2021/12/12 01:01:00;;;;;;;9.60;5.27;;;;;;;;;;5049016;28;20225;-77
2021/12/12 01:03:30;;;;;;;8.97;4.63;;;;;;;;;;5051697;28;20898;-77
2021/12/12 01:05:58;;;;;;;13.70;5.60;;;;;;;;;;5050815;28;20226;-77
2021/12/12 01:08:25;;;;;;;7.97;4.90;;;;;;;;;;5052215;28;20199;-77
2021/12/12 01:10:56;;;;;;;7.63;4.70;;;;;;;;;;5051055;28;20229;-77
2021/12/12 01:13:24;;;;;;;10.53;5.37;;;;;;;;;;5052399;28;20539;-77
2021/12/12 01:15:53;;;;;;;9.77;5.77;;;;;;;;;;5051090;28;20233;-77
2021/12/12 01:18:23;;;;;;;7.57;4.53;;;;;;;;;;5051010;28;20209;-77
2021/12/12 01:20:52;;;;;;;8.97;4.77;;;;;;;;;;5050697;28;20748;-77
2021/12/12 01:23:21;;;;;;;10.53;5.20;;;;;;;;;;5053851;28;20201;-77
2021/12/12 01:25:49;;;;;;;6.90;4.60;;;;;;;;;;5054695;28;20229;-78
2021/12/12 01:28:18;;;;;;;9.27;5.23;;;;;;;;;;5052981;28;20194;-78
2021/12/12 01:30:45;;;;;;;11.40;5.80;;;;;;;;;;5054600;28;20726;-77
2021/12/12 01:33:21;;;;;;;8.60;4.60;;;;;;;;;;5054986;28;20225;-77
2021/12/12 01:35:51;;;;;;;13.07;5.07;;;;;;;;;;5053941;28;20593;-77
2021/12/12 01:41:03;;;;;;;7.23;4.53;;;;;;;;;;5052094;28;20310;-78
2021/12/12 01:43:35;;;;;;;4.97;4.47;;;;;;;;;;5055630;28;20760;-77
2021/12/12 01:46:04;;;;;;;8.30;5.00;;;;;;;;;;5054432;28;20241;-78
2021/12/12 01:48:33;;;;;;;6.30;5.03;;;;;;;;;;5055060;28;20194;-77
2021/12/12 01:51:03;;;;;;;9.03;5.67;;;;;;;;;;5053952;28;20241;-78
2021/12/12 01:53:31;;;;;;;9.40;5.57;;;;;;;;;;5051689;28;20232;-78
2021/12/12 01:56:00;;;;;;;7.40;5.03;;;;;;;;;;5054100;28;20230;-77
2021/12/12 01:58:28;;;;;;;8.37;5.33;;;;;;;;;;5053962;28;20605;-78
2021/12/12 02:00:57;;;;;;;6.97;4.83;;;;;;;;;;5053133;28;20229;-77
2021/12/12 02:03:25;;;;;;;6.53;4.97;;;;;;;;;;5053868;28;20197;-77
2021/12/12 02:05:53;;;;;;;7.90;5.10;;;;;;;;;;5051357;28;20308;-77
2021/12/12 02:08:22;;;;;;;6.13;5.23;;;;;;;;;;5053892;28;20210;-78
2021/12/12 02:10:52;;;;;;;8.57;5.63;;;;;;;;;;5052783;28;20226;-77
2021/12/12 02:13:20;;;;;;;10.57;5.87;;;;;;;;;;5052529;28;20225;-77
2021/12/12 02:15:48;;;;;;;10.80;6.20;;;;;;;;;;5053051;28;20732;-77
2021/12/12 02:18:18;;;;;;;9.77;6.13;;;;;;;;;;5053922;28;20662;-78
2021/12/12 02:21:03;;;;;;;12.40;6.63;;;;;;;;;;5050554;28;20230;-78
2021/12/12 02:23:41;;;;;;;10.37;5.67;;;;;;;;;;5052166;28;20195;-78
2021/12/12 02:37:09;;;;;;;8.23;5.77;;;;;;;;;;5053067;28;20336;-77
2021/12/12 02:39:38;;;;;;;7.63;4.73;;;;;;;;;;5053018;28;20245;-78
2021/12/12 02:42:08;;;;;;;7.83;5.60;;;;;;;;;;5052078;28;20229;-77
2021/12/12 02:44:36;;;;;;;10.33;5.67;;;;;;;;;;5052459;28;20234;-77
2021/12/12 02:47:09;;;;;;;11.87;5.90;;;;;;;;;;5051388;28;20289;-77
2021/12/12 02:49:40;;;;;;;10.50;5.00;;;;;;;;;;5052547;28;20229;-77
2021/12/12 02:52:08;;;;;;;7.93;5.37;;;;;;;;;;5053097;28;20328;-77
2021/12/12 02:54:35;;;;;;;14.67;6.10;;;;;;;;;;5052153;28;20222;-77
2021/12/12 02:57:04;;;;;;;11.77;5.77;;;;;;;;;;5053312;28;20685;-78
2021/12/12 02:59:32;;;;;;;11.87;6.00;;;;;;;;;;5052358;28;20234;-78
2021/12/12 03:02:01;;;;;;;11.60;6.17;;;;;;;;;;5053686;28;20225;-77
2021/12/12 03:04:29;;;;;;;10.03;6.00;;;;;;;;;;5051583;28;20234;-77
2021/12/12 03:06:57;;;;;;;8.43;5.47;;;;;;;;;;5053442;28;20202;-77
2021/12/12 03:09:26;;;;;;;9.80;6.23;;;;;;;;;;5052894;28;20221;-77
2021/12/12 03:11:56;;;;;;;8.83;5.33;;;;;;;;;;5052547;28;20352;-77
2021/12/12 03:14:25;;;;;;;6.60;5.63;;;;;;;;;;5052285;28;20233;-77
2021/12/12 03:16:52;;;;;;;10.07;6.00;;;;;;;;;;5053011;28;20726;-77
2021/12/12 03:19:20;;;;;;;11.87;5.83;;;;;;;;;;5051467;28;22031;-77
2021/12/12 03:21:49;;;;;;;8.90;5.60;;;;;;;;;;5052745;28;20607;-77
2021/12/12 03:24:19;;;;;;;12.07;5.90;;;;;;;;;;5051822;28;20230;-78
2021/12/12 03:26:47;;;;;;;12.93;5.87;;;;;;;;;;5052499;28;20204;-77
2021/12/12 03:29:14;;;;;;;10.27;6.00;;;;;;;;;;5049719;28;20245;-77
2021/12/12 03:31:44;;;;;;;10.20;5.40;;;;;;;;;;5052453;28;20733;-77
2021/12/12 03:34:12;;;;;;;6.73;5.17;;;;;;;;;;5051933;28;20229;-78
2021/12/12 03:36:39;;;;;;;9.33;5.50;;;;;;;;;;5053336;28;20205;-77
2021/12/12 03:39:09;;;;;;;9.13;5.97;;;;;;;;;;5048942;28;20734;-77
2021/12/12 03:41:37;;;;;;;6.87;5.47;;;;;;;;;;5051601;28;20280;-77
2021/12/12 03:44:05;;;;;;;6.47;5.10;;;;;;;;;;5052048;28;20236;-77
2021/12/12 03:46:33;;;;;;;8.43;5.37;;;;;;;;;;5050942;28;20197;-77
2021/12/12 03:49:01;;;;;;;7.30;5.50;;;;;;;;;;5051959;28;20238;-77
2021/12/12 03:51:30;;;;;;;10.43;5.83;;;;;;;;;;5053227;28;20233;-77
2021/12/12 03:53:58;;;;;;;13.47;6.03;;;;;;;;;;5050022;28;20248;-77
2021/12/12 03:56:25;;;;;;;14.33;6.23;;;;;;;;;;5051424;28;20206;-78
2021/12/12 03:58:53;;;;;;;11.23;5.07;;;;;;;;;;5051845;28;20212;-77
2021/12/12 04:01:21;;;;;;;7.80;4.70;;;;;;;;;;5052642;28;20229;-77
2021/12/12 04:03:49;;;;;;;6.43;5.83;;;;;;;;;;5050902;28;20206;-77
2021/12/12 04:06:19;;;;;;;12.07;6.00;;;;;;;;;;5051366;28;20686;-77
2021/12/12 04:08:49;;;;;;;14.73;6.47;;;;;;;;;;5051849;28;20198;-77
2021/12/12 04:11:17;;;;;;;13.73;5.80;;;;;;;;;;5050488;28;20218;-77
2021/12/12 04:13:46;;;;;;;11.23;5.57;;;;;;;;;;5051640;28;20225;-77
2021/12/12 04:16:13;;;;;;;13.17;5.63;;;;;;;;;;5052171;28;20232;-77
2021/12/12 04:18:41;;;;;;;8.50;5.40;;;;;;;;;;5051755;28;20209;-77
2021/12/12 04:21:09;;;;;;;10.03;5.63;;;;;;;;;;5051304;28;20221;-78
2021/12/12 04:23:38;;;;;;;6.10;5.10;;;;;;;;;;5051892;28;20689;-77
2021/12/12 04:26:10;;;;;;;10.37;5.50;;;;;;;;;;5050842;28;21011;-77
2021/12/12 04:28:37;;;;;;;11.40;6.00;;;;;;;;;;5050984;28;20202;-77
2021/12/12 04:31:04;;;;;;;7.30;5.27;;;;;;;;;;5051218;28;20241;-77
2021/12/12 04:33:31;;;;;;;11.00;5.70;;;;;;;;;;5051578;28;20689;-77
2021/12/12 04:35:58;;;;;;;12.47;5.80;;;;;;;;;;5051073;28;20249;-77
2021/12/12 04:38:25;;;;;;;8.07;5.27;;;;;;;;;;5051937;28;22057;-77
2021/12/12 04:40:54;;;;;;;13.80;5.77;;;;;;;;;;5050219;28;20595;-77
2021/12/12 04:43:21;;;;;;;11.23;5.17;;;;;;;;;;5047423;28;20195;-77
2021/12/12 04:46:03;;;;;;;9.23;4.80;;;;;;;;;;5048944;28;20232;-77
2021/12/12 04:51:19;;;;;;;9.53;4.80;;;;;;;;;;5048883;28;20221;-77
2021/12/12 04:53:48;;;;;;;12.17;5.47;;;;;;;;;;5050905;28;20229;-77
2021/12/12 04:56:19;;;;;;;5.23;4.57;;;;;;;;;;5051490;28;20558;-77
2021/12/12 04:58:49;;;;;;;6.43;4.53;;;;;;;;;;5048934;28;20666;-78
2021/12/12 05:01:18;;;;;;;7.77;4.43;;;;;;;;;;5048215;28;20308;-77
2021/12/12 05:03:49;;;;;;;7.33;4.37;;;;;;;;;;5048535;28;20198;-77
2021/12/12 05:06:20;;;;;;;5.93;4.47;;;;;;;;;;5050112;28;20203;-77
2021/12/12 05:08:51;;;;;;;7.13;4.67;;;;;;;;;;5050918;28;20202;-77
2021/12/12 05:11:22;;;;;;;8.80;5.10;;;;;;;;;;5049691;28;20229;-77
2021/12/12 05:13:51;;;;;;;7.33;4.77;;;;;;;;;;5050991;28;20674;-78
2021/12/12 05:16:21;;;;;;;8.67;4.63;;;;;;;;;;5050785;28;20201;-77
2021/12/12 05:18:51;;;;;;;7.30;4.53;;;;;;;;;;5048958;28;20700;-77
2021/12/12 05:21:19;;;;;;;12.47;5.40;;;;;;;;;;5049545;28;20591;-77
2021/12/12 05:23:48;;;;;;;11.07;5.60;;;;;;;;;;5046455;28;20198;-77
2021/12/12 05:26:17;;;;;;;11.47;4.10;;;;;;;;;;5048417;28;20208;-77
2021/12/12 05:28:51;;;;;;;7.97;4.37;;;;;;;;;;5049794;28;20654;-77
2021/12/12 05:31:20;;;;;;;8.63;4.03;;;;;;;;;;5042164;28;20233;-77
2021/12/12 05:33:50;;;;;;;6.50;3.90;;;;;;;;;;5048998;28;20225;-77
2021/12/12 05:36:17;;;;;;;6.83;4.17;;;;;;;;;;5049890;28;20254;-78
2021/12/12 05:38:45;;;;;;;6.50;3.90;;;;;;;;;;5049805;28;20205;-77
2021/12/12 05:41:12;;;;;;;9.27;4.40;;;;;;;;;;5049518;28;20225;-77
2021/12/12 05:43:40;;;;;;;12.37;4.87;;;;;;;;;;5047362;28;20285;-77
2021/12/12 05:46:08;;;;;;;8.17;4.53;;;;;;;;;;5047297;28;20209;-77
2021/12/12 05:48:35;;;;;;;8.90;4.53;;;;;;;;;;5050514;28;20855;-77
2021/12/12 05:51:02;;;;;;;7.90;3.90;;;;;;;;;;5050579;28;20724;-77
2021/12/12 05:53:30;;;;;;;8.10;3.57;;;;;;;;;;5047742;28;20720;-77
2021/12/12 05:55:57;;;;;;;12.10;4.57;;;;;;;;;;5049514;28;20233;-77
2021/12/12 05:58:24;;;;;;;11.50;4.70;;;;;;;;;;5049552;28;20222;-77
2021/12/12 06:00:54;;;;;;;8.30;4.60;;;;;;;;;;5049732;28;20574;-77
2021/12/12 06:03:24;;;;;;;6.70;4.10;;;;;;;;;;5046788;28;20198;-77
2021/12/12 06:05:52;;;;;;;8.20;4.10;;;;;;;;;;5049377;28;20229;-77
2021/12/12 06:08:20;;;;;;;6.43;4.30;;;;;;;;;;5050307;28;20579;-78
2021/12/12 06:10:47;;;;;;;16.23;4.50;;;;;;;;;;5052281;28;20233;-77
2021/12/12 06:13:17;;;;;;;6.27;4.23;;;;;;;;;;5053595;28;20698;-77
2021/12/12 06:15:45;;;;;;;8.70;4.20;;;;;;;;;;5052857;28;20233;-77
2021/12/12 06:18:13;;;;;;;10.03;4.37;;;;;;;;;;5053081;28;20221;-77
2021/12/12 06:20:42;;;;;;;4.50;3.90;;;;;;;;;;5052688;28;20610;-77
2021/12/12 06:23:10;;;;;;;6.10;3.93;;;;;;;;;;5049757;28;20572;-78
2021/12/12 06:25:37;;;;;;;6.03;4.50;;;;;;;;;;5050360;28;20234;-77
2021/12/12 06:28:08;;;;;;;6.90;4.40;;;;;;;;;;5053671;28;20554;-77
2021/12/12 06:30:35;;;;;;;4.93;3.90;;;;;;;;;;5052221;28;20882;-77
2021/12/12 06:33:02;;;;;;;7.53;3.97;;;;;;;;;;5051502;28;20579;-77
2021/12/12 06:35:29;;;;;;;4.83;4.17;;;;;;;;;;5047294;28;20230;-77
2021/12/12 06:38:01;;;;;;;5.27;3.17;;;;;;;;;;5053180;28;20212;-77
2021/12/12 06:40:29;;;;;;;5.73;3.73;;;;;;;;;;5051182;28;20230;-77
2021/12/12 06:42:56;;;;;;;10.17;3.47;;;;;;;;;;5052579;28;20541;-78
2021/12/12 06:45:24;;;;;;;10.33;3.83;;;;;;;;;;5052092;28;20245;-77
2021/12/12 06:47:52;;;;;;;8.63;3.80;;;;;;;;;;5052924;28;20206;-77
2021/12/12 06:50:20;;;;;;;3.70;3.40;;;;;;;;;;5052524;28;20237;-78
2021/12/12 06:52:47;;;;;;;8.30;3.70;;;;;;;;;;5052255;28;20205;-78
2021/12/12 06:55:16;;;;;;;7.63;3.80;;;;;;;;;;5051820;28;20241;-78
2021/12/12 06:57:43;;;;;;;8.13;3.70;;;;;;;;;;5052711;28;20658;-78
2021/12/12 07:00:12;;;;;;;5.13;3.93;;;;;;;;;;5046642;28;20238;-78
2021/12/12 07:02:41;;;;;;;6.60;4.50;;;;;;;;;;5052617;28;20279;-78
2021/12/12 07:05:08;;;;;;;6.73;3.87;;;;;;;;;;5051969;28;20366;-75
2021/12/12 07:07:36;;;;;;;7.93;4.63;;;;;;;;;;5052430;28;20198;-75
2021/12/12 07:10:03;;;;;;;7.70;4.43;;;;;;;;;;5048791;28;20241;-75
2021/12/12 07:12:31;;;;;;;4.83;3.40;;;;;;;;;;5033879;28;20242;-75
2021/12/12 07:14:58;;;;;;;4.77;3.90;;;;;;;;;;5045079;28;20238;-75
2021/12/12 07:17:25;;;;;;;10.60;4.53;;;;;;;;;;5053748;28;20206;-75
2021/12/12 07:19:53;;;;;;;6.43;4.07;;;;;;;;;;5053024;28;20237;-76
2021/12/12 07:22:20;;;;;;;5.50;4.17;;;;;;;;;;5053571;28;20234;-75
2021/12/12 07:24:47;;;;;;;19.73;7.30;;;;;;;;;;5052597;28;20252;-75
2021/12/12 07:27:15;;;;;;;8.33;4.67;;;;;;;;;;5052900;28;20195;-75
2021/12/12 07:29:44;;;;;;;9.13;4.40;;;;;;;;;;5053116;28;20245;-75
2021/12/12 07:32:11;;;;;;;10.30;5.13;;;;;;;;;;5053737;28;20664;-76
2021/12/12 07:34:39;;;;;;;7.97;4.50;;;;;;;;;;5052835;28;20241;-75
2021/12/12 07:37:07;;;;;;;10.33;5.80;;;;;;;;;;5052922;28;20213;-75
2021/12/12 07:39:34;;;;;;;12.30;5.93;;;;;;;;;;5052628;28;20241;-76
2021/12/12 07:42:04;;;;;;;7.07;5.77;;;;;;;;;;5053270;28;20718;-76
2021/12/12 07:44:33;;;;;;;11.73;5.30;;;;;;;;;;5052713;28;20613;-77
2021/12/12 07:47:02;;;;;;;11.47;4.67;;;;;;;;;;5053200;28;20214;-77
2021/12/12 07:49:31;;;;;;;3.13;2.90;;;;;;;;;;5053499;28;20260;-76
2021/12/12 07:51:58;;;;;;;11.23;5.50;;;;;;;;;;5052343;28;20233;-77
2021/12/12 07:54:25;;;;;;;11.07;5.70;;;;;;;;;;5052304;28;20678;-76
2021/12/12 07:56:53;;;;;;;7.87;4.10;;;;;;;;;;5053026;28;20209;-77
2021/12/12 07:59:20;;;;;;;10.90;4.63;;;;;;;;;;5052882;28;20241;-78
2021/12/12 08:01:49;;;;;;;6.93;4.13;;;;;;;;;;5052549;28;20631;-77
2021/12/12 08:04:19;;;;;;;10.93;5.23;;;;;;;;;;5052342;28;20313;-77
2021/12/12 08:06:47;;;;;;;5.17;3.53;;;;;;;;;;5052385;28;20202;-77
2021/12/12 08:09:14;;;;;;;5.87;3.40;;;;;;;;;;5052166;28;20712;-77
2021/12/12 08:11:41;;;;;;;8.87;5.97;;;;;;;;;;5043366;28;20226;-77
2021/12/12 08:14:11;;;;;;;7.17;3.93;;;;;;;;;;5049731;28;20237;-76
2021/12/12 08:16:39;;;;;;;5.77;4.33;;;;;;;;;;5051870;28;20289;-76
2021/12/12 08:19:06;;;;;;;7.57;4.23;;;;;;;;;;5052126;28;20241;-76
2021/12/12 08:21:36;;;;;;;10.50;5.43;;;;;;;;;;5052575;28;20627;-77
2021/12/12 08:24:06;;;;;;;11.30;4.47;;;;;;;;;;5040580;28;20307;-77
2021/12/12 08:26:34;;;;;;;3.90;3.57;;;;;;;;;;5035361;28;20205;-76
2021/12/12 08:29:02;;;;;;;6.97;4.27;;;;;;;;;;5032531;28;20245;-77
2021/12/12 08:31:29;;;;;;;8.10;5.23;;;;;;;;;;5038443;28;20234;-77
2021/12/12 08:33:57;;;;;;;4.67;3.60;;;;;;;;;;5051421;28;20232;-78
2021/12/12 08:36:24;;;;;;;5.30;4.27;;;;;;;;;;5050303;28;20697;-77
2021/12/12 08:38:52;;;;;;;13.10;5.00;;;;;;;;;;5051657;28;20210;-78
2021/12/12 08:41:21;;;;;;;6.63;3.97;;;;;;;;;;5052100;28;20283;-77
2021/12/12 08:43:48;;;;;;;8.83;4.60;;;;;;;;;;5051535;28;20552;-78
2021/12/12 08:46:17;;;;;;;10.97;4.50;;;;;;;;;;5052163;28;20213;-79
2021/12/12 08:48:46;;;;;;;10.23;5.03;;;;;;;;;;5051754;28;20213;-77
2021/12/12 08:51:14;;;;;;;2.70;2.50;;;;;;;;;;5051767;28;20237;-77
2021/12/12 08:53:44;;;;;;;7.53;4.33;;;;;;;;;;5051346;28;20218;-77
2021/12/12 08:56:19;;;;;;;11.87;5.17;;;;;;;;;;5051379;28;20211;-77
2021/12/12 08:58:47;;;;;;;12.33;4.37;;;;;;;;;;5050450;28;20201;-78
2021/12/12 09:01:16;;;;;;;5.93;4.60;;;;;;;;;;5051595;28;20226;-77
2021/12/12 09:03:45;;;;;;;7.10;4.17;;;;;;;;;;5050853;28;20312;-77
2021/12/12 09:06:13;;;;;;;5.70;4.57;;;;;;;;;;5051509;28;20217;-78
2021/12/12 09:08:42;;;;;;;4.33;3.93;;;;;;;;;;5050883;28;20264;-78
2021/12/12 09:11:11;;;;;;;8.80;4.97;;;;;;;;;;5051517;28;20234;-78
2021/12/12 09:13:44;;;;;;;6.20;4.20;;;;;;;;;;5050818;28;20218;-78
2021/12/12 09:16:13;;;;;;;7.13;3.53;;;;;;;;;;5039370;28;21067;-77
2021/12/12 09:18:44;;;;;;;4.97;3.53;;;;;;;;;;5031276;28;20675;-77
2021/12/12 09:21:13;;;;;;;6.60;4.90;;;;;;;;;;5032562;28;20270;-76
2021/12/12 09:23:42;;;;;;;6.80;4.77;;;;;;;;;;5031865;28;20266;-78
2021/12/12 09:26:12;;;;;;;7.10;4.17;;;;;;;;;;5048349;28;20256;-77
2021/12/12 09:28:43;;;;;;;5.90;3.83;;;;;;;;;;5050896;28;20671;-77
2021/12/12 09:31:12;;;;;;;8.93;4.30;;;;;;;;;;5051458;28;20269;-77
2021/12/12 09:33:45;;;;;;;10.00;4.83;;;;;;;;;;5050997;28;20198;-76
2021/12/12 09:36:15;;;;;;;5.27;3.43;;;;;;;;;;5051076;28;20215;-76
2021/12/12 09:38:45;;;;;;;8.13;4.20;;;;;;;;;;5050851;28;20671;-77
2021/12/12 09:41:20;;;;;;;9.00;4.00;;;;;;;;;;5051411;28;20232;-77
2021/12/12 09:43:57;;;;;;;4.90;3.50;;;;;;;;;;5053182;28;20250;-77
2021/12/12 09:46:40;;;;;;;6.17;3.90;;;;;;;;;;5055017;28;20300;-76
2021/12/12 09:52:34;;;;;;;3.60;2.97;;;;;;;;;;5055102;28;20239;-75
2021/12/12 09:55:03;;;;;;;3.00;2.70;;;;;;;;;;5043179;28;20651;-76
2021/12/12 09:57:35;;;;;;;5.97;4.20;;;;;;;;;;5035834;28;20690;-76
2021/12/12 10:00:11;;;;;;;11.13;3.70;;;;;;;;;;5035344;28;20672;-77
2021/12/12 10:02:48;;;;;;;5.20;3.67;;;;;;;;;;5035160;28;20234;-77
2021/12/12 10:05:19;;;;;;;3.10;2.80;;;;;;;;;;5034904;28;20226;-77
2021/12/12 10:07:52;;;;;;;4.30;3.90;;;;;;;;;;5036296;28;20240;-76
2021/12/12 10:10:23;;;;;;;8.33;4.00;;;;;;;;;;5054608;28;20736;-76
2021/12/12 10:12:56;;;;;;;4.37;3.97;;;;;;;;;;5055059;28;20645;-77
2021/12/12 10:15:26;;;;;;;6.10;3.80;;;;;;;;;;5051052;28;20230;-77
2021/12/12 10:17:55;;;;;;;3.90;3.17;;;;;;;;;;5034903;28;20217;-77
2021/12/12 10:20:24;;;;;;;3.90;3.40;;;;;;;;;;5039232;28;20251;-76
2021/12/12 10:23:02;;;;;;;6.10;3.67;;;;;;;;;;5054785;28;20216;-77
2021/12/12 10:25:31;;;;;;;9.33;3.60;;;;;;;;;;5054043;28;20256;-78
2021/12/12 10:28:00;;;;;;;5.57;4.40;;;;;;;;;;5055090;28;20214;-77
2021/12/12 10:30:30;;;;;;;4.20;2.77;;;;;;;;;;5053868;28;20236;-76
2021/12/12 10:33:02;;;;;;;8.30;4.23;;;;;;;;;;5040527;28;20202;-77
2021/12/12 10:35:32;;;;;;;5.40;3.97;;;;;;;;;;5034058;28;20710;-77
2021/12/12 10:38:01;;;;;;;5.80;3.47;;;;;;;;;;5034979;28;20214;-77
2021/12/12 10:40:30;;;;;;;4.03;3.30;;;;;;;;;;5034158;28;20233;-77
2021/12/12 10:43:00;;;;;;;6.47;3.63;;;;;;;;;;5034445;28;20697;-77
2021/12/12 10:45:29;;;;;;;1.70;1.67;;;;;;;;;;5036853;28;20598;-76
2021/12/12 10:47:59;;;;;;;7.17;4.57;;;;;;;;;;5042593;28;20681;-77
2021/12/12 10:50:30;;;;;;;4.97;3.00;;;;;;;;;;5034162;28;20242;-77
2021/12/12 10:53:00;;;;;;;7.70;4.13;;;;;;;;;;5034601;28;20218;-78
2021/12/12 10:55:30;;;;;;;3.07;2.77;;;;;;;;;;5033254;28;20233;-77
2021/12/12 10:58:00;;;;;;;4.67;3.63;;;;;;;;;;5034358;28;20211;-76
2021/12/12 11:00:31;;;;;;;6.13;4.43;;;;;;;;;;5049825;28;20237;-76
2021/12/12 11:03:03;;;;;;;7.57;5.10;;;;;;;;;;5054996;28;20213;-81
2021/12/12 11:05:32;;;;;;;7.93;4.50;;;;;;;;;;5054778;28;20251;-76
2021/12/12 11:08:03;;;;;;;5.60;3.40;;;;;;;;;;5053766;28;20670;-76
2021/12/12 11:10:33;;;;;;;7.87;4.73;;;;;;;;;;5043844;28;20288;-76
2021/12/12 11:13:04;;;;;;;9.30;5.17;;;;;;;;;;5042904;28;20962;-76
2021/12/12 11:15:36;;;;;;;3.53;3.23;;;;;;;;;;5053259;28;20325;-76
2021/12/12 11:18:06;;;;;;;6.83;4.00;;;;;;;;;;5053280;28;20294;-76
2021/12/12 11:20:35;;;;;;;3.50;3.20;;;;;;;;;;5052883;28;20298;-76
2021/12/12 11:23:05;;;;;;;5.10;3.87;;;;;;;;;;5053387;28;20299;-76
2021/12/12 11:25:35;;;;;;;4.93;4.00;;;;;;;;;;5051141;28;20584;-77
2021/12/12 11:28:04;;;;;;;6.00;4.07;;;;;;;;;;5052450;28;20206;-77
2021/12/12 11:30:35;;;;;;;10.57;3.63;;;;;;;;;;5052178;28;20924;-77
2021/12/12 11:33:04;;;;;;;8.17;4.13;;;;;;;;;;5051770;28;20297;-77
2021/12/12 11:35:32;;;;;;;11.63;6.13;;;;;;;;;;5041227;28;20237;-75
2021/12/12 11:38:02;;;;;;;7.20;3.90;;;;;;;;;;5053474;28;20212;-76
2021/12/12 11:40:30;;;;;;;9.13;4.13;;;;;;;;;;5050533;28;20240;-76
2021/12/12 11:43:03;;;;;;;3.43;3.13;;;;;;;;;;5033005;28;20219;-75
2021/12/12 11:45:38;;;;;;;5.10;4.07;;;;;;;;;;5040800;28;20230;-77
2021/12/12 11:48:18;;;;;;;5.33;3.63;;;;;;;;;;5063352;28;20244;-75
2021/12/12 11:50:51;;;;;;;9.53;4.53;;;;;;;;;;5056873;28;20241;-77
2021/12/12 11:53:21;;;;;;;6.53;2.97;;;;;;;;;;5056494;28;20206;-76
2021/12/12 11:55:51;;;;;;;3.70;2.60;;;;;;;;;;5055987;28;20236;-75
2021/12/12 11:58:23;;;;;;;9.43;3.40;;;;;;;;;;5054028;28;20217;-75
2021/12/12 12:00:51;;;;;;;3.60;3.30;;;;;;;;;;5049870;28;20225;-76
2021/12/12 12:03:27;;;;;;;6.83;3.70;;;;;;;;;;5053912;28;20214;-76
2021/12/12 12:06:00;;;;;;;7.03;3.30;;;;;;;;;;5052292;28;20717;-77
2021/12/12 12:08:29;;;;;;;3.67;3.23;;;;;;;;;;5051994;28;20202;-77
2021/12/12 12:11:05;;;;;;;6.73;2.80;;;;;;;;;;5050210;28;20705;-78
2021/12/12 12:13:39;;;;;;;6.97;2.97;;;;;;;;;;5046843;28;20210;-77
2021/12/12 12:16:12;;;;;;;9.13;3.87;;;;;;;;;;5056495;28;20237;-80
2021/12/12 12:18:43;;;;;;;6.63;3.60;;;;;;;;;;5048365;28;20229;-79
2021/12/12 12:21:16;;;;;;;6.83;3.90;;;;;;;;;;5052315;28;20727;-79
2021/12/12 12:24:11;;;;;;;3.47;2.20;;;;;;;;;;5043271;28;20240;-78
2021/12/12 12:26:55;;;;;;;8.17;3.53;;;;;;;;;;5033240;28;20210;-78
2021/12/12 12:29:40;;;;;;;7.07;3.43;;;;;;;;;;5044323;28;20729;-77
2021/12/12 12:32:37;;;;;;;4.97;2.90;;;;;;;;;;5021884;28;20906;-78
2021/12/12 12:35:37;;;;;;;3.37;3.07;;;;;;;;;;5035681;28;20241;-77
2021/12/12 12:38:19;;;;;;;4.27;3.13;;;;;;;;;;5031346;28;20210;-77
2021/12/12 12:41:35;;;;;;;8.10;3.50;;;;;;;;;;5032900;28;20241;-77
2021/12/12 12:44:23;;;;;;;9.33;3.47;;;;;;;;;;5031274;28;20729;-77
2021/12/12 12:47:08;;;;;;;2.90;2.53;;;;;;;;;;5030910;28;20202;-77
2021/12/12 12:50:19;;;;;;;9.03;3.60;;;;;;;;;;5032073;28;20241;-78
2021/12/12 12:52:54;;;;;;;5.53;3.30;;;;;;;;;;5045149;28;20198;-77
2021/12/12 12:55:42;;;;;;;7.40;3.33;;;;;;;;;;5053707;28;20253;-78
2021/12/12 12:58:12;;;;;;;6.97;3.60;;;;;;;;;;5019643;28;20206;-76
2021/12/12 13:00:41;;;;;;;7.20;3.43;;;;;;;;;;5050893;28;20234;-76
2021/12/12 13:03:15;;;;;;;5.80;3.07;;;;;;;;;;5051184;28;20226;-76
2021/12/12 13:06:03;;;;;;;4.60;2.73;;;;;;;;;;5051061;28;20299;-76
2021/12/12 13:08:58;;;;;;;4.53;2.83;;;;;;;;;;5050703;28;20228;-76
2021/12/12 13:11:31;;;;;;;7.27;2.80;;;;;;;;;;5051423;28;20237;-78
2021/12/12 13:14:02;;;;;;;5.63;2.97;;;;;;;;;;5051750;28;20319;-78
2021/12/12 13:16:32;;;;;;;7.80;3.40;;;;;;;;;;5052396;28;20226;-77
2021/12/12 13:19:00;;;;;;;4.77;2.33;;;;;;;;;;5052021;28;20233;-77
2021/12/12 13:21:31;;;;;;;5.93;3.60;;;;;;;;;;5053607;28;20222;-78
2021/12/12 13:24:01;;;;;;;6.57;3.37;;;;;;;;;;5051561;28;20237;-76
2021/12/12 13:26:34;;;;;;;5.67;3.00;;;;;;;;;;5050269;28;20217;-77
2021/12/12 13:29:14;;;;;;;5.87;2.60;;;;;;;;;;5048617;28;20229;-77
2021/12/12 13:31:42;;;;;;;8.17;3.60;;;;;;;;;;5050416;28;20315;-77
2021/12/12 13:34:13;;;;;;;4.47;2.23;;;;;;;;;;5031593;28;20238;-79
2021/12/12 13:36:44;;;;;;;5.80;2.67;;;;;;;;;;5039932;28;20222;-76
2021/12/12 13:39:14;;;;;;;9.17;3.20;;;;;;;;;;5050384;28;20256;-76
2021/12/12 13:41:50;;;;;;;5.40;3.27;;;;;;;;;;5050760;28;20331;-76
2021/12/12 13:44:22;;;;;;;9.37;3.77;;;;;;;;;;5049716;28;20545;-76
2021/12/12 13:46:54;;;;;;;3.83;3.10;;;;;;;;;;5050468;28;20201;-76
2021/12/12 13:49:25;;;;;;;5.00;3.00;;;;;;;;;;5049905;28;20230;-76
2021/12/12 13:51:53;;;;;;;7.20;3.27;;;;;;;;;;5050814;28;20230;-76
2021/12/12 13:54:24;;;;;;;4.23;3.00;;;;;;;;;;5049633;28;20240;-76
2021/12/12 13:57:03;;;;;;;2.77;2.57;;;;;;;;;;5049707;28;20224;-76
2021/12/12 13:59:34;;;;;;;6.23;3.40;;;;;;;;;;5049247;28;20744;-76
2021/12/12 14:02:03;;;;;;;4.67;2.97;;;;;;;;;;5039633;28;20717;-76
2021/12/12 14:04:37;;;;;;;5.37;3.33;;;;;;;;;;5042686;28;20628;-76
2021/12/12 14:07:05;;;;;;;5.07;3.57;;;;;;;;;;5037197;28;20289;-76
2021/12/12 14:09:33;;;;;;;5.17;3.43;;;;;;;;;;5041462;28;20229;-75
2021/12/12 14:12:02;;;;;;;8.43;4.10;;;;;;;;;;5050116;28;20566;-77
2021/12/12 14:14:32;;;;;;;7.70;3.70;;;;;;;;;;5049698;28;20230;-76
2021/12/12 14:17:02;;;;;;;7.93;4.03;;;;;;;;;;5050402;28;20595;-77
2021/12/12 14:19:34;;;;;;;9.50;4.20;;;;;;;;;;5031731;28;20231;-79
2021/12/12 14:22:01;;;;;;;8.27;4.00;;;;;;;;;;5032137;28;20230;-77
2021/12/12 14:24:30;;;;;;;2.90;2.70;;;;;;;;;;5041472;28;20600;-77
2021/12/12 14:27:00;;;;;;;6.23;4.03;;;;;;;;;;5049399;28;20203;-77
2021/12/12 14:29:33;;;;;;;10.77;4.90;;;;;;;;;;5049246;28;20242;-76
2021/12/12 14:32:02;;;;;;;7.00;4.13;;;;;;;;;;5053575;28;20329;-77
2021/12/12 14:34:32;;;;;;;9.27;3.90;;;;;;;;;;5053158;28;20236;-77
2021/12/12 14:37:01;;;;;;;3.20;2.90;;;;;;;;;;5053297;28;20226;-76
2021/12/12 14:39:31;;;;;;;9.30;4.10;;;;;;;;;;5053188;28;20238;-77
2021/12/12 14:42:00;;;;;;;4.83;3.03;;;;;;;;;;5053300;28;20229;-76
2021/12/12 14:44:30;;;;;;;4.90;2.80;;;;;;;;;;5053402;28;20448;-77
2021/12/12 14:47:02;;;;;;;4.80;3.10;;;;;;;;;;5052127;28;20207;-78
2021/12/12 14:49:30;;;;;;;5.37;3.27;;;;;;;;;;5053080;28;20613;-77
2021/12/12 14:51:59;;;;;;;2.57;2.37;;;;;;;;;;5052902;28;20226;-77
2021/12/12 14:54:27;;;;;;;7.53;3.90;;;;;;;;;;5053880;28;20230;-78
2021/12/12 14:56:55;;;;;;;7.23;3.30;;;;;;;;;;5057543;28;20230;-77
2021/12/12 14:59:24;;;;;;;8.27;3.50;;;;;;;;;;5055840;28;20312;-76
2021/12/12 15:01:55;;;;;;;5.43;3.30;;;;;;;;;;5051956;28;20573;-76
2021/12/12 15:04:25;;;;;;;5.10;3.30;;;;;;;;;;5045361;28;20317;-77
2021/12/12 15:06:54;;;;;;;6.83;3.20;;;;;;;;;;5050409;28;20583;-77
2021/12/12 15:09:23;;;;;;;4.83;3.60;;;;;;;;;;5053380;28;20234;-78
2021/12/12 15:11:54;;;;;;;3.10;2.33;;;;;;;;;;5056054;28;20232;-77
2021/12/12 15:14:24;;;;;;;3.73;2.70;;;;;;;;;;5051991;28;20237;-77
2021/12/12 15:16:53;;;;;;;4.93;3.00;;;;;;;;;;5053100;28;20663;-78
2021/12/12 15:19:23;;;;;;;7.17;3.50;;;;;;;;;;5052540;28;20237;-77